Time;durP1;ratioP1;P1;durP2;ratioP2;P2;SDS_P1;SDS_P2;PMS_P1;PMS_P2;Temp;Humidity;BMP_temperature;BMP_pressure;BME280_temperature;BME280_humidity;BME280_pressure;Samples;Min_cycle;Max_cycle;Signal;HPM_P1;HPM_P2
2023/03/11 00:01:57;;;;;;;5.53;0.60;;;0.80;84.70;;;;;;5116160;27;20132;-77
2023/03/11 00:04:25;;;;;;;4.70;0.20;;;0.80;84.60;;;;;;5125016;22;20083;-77
2023/03/11 00:06:52;;;;;;;2.00;0.20;;;0.80;85.00;;;;;;5099537;28;20139;-77
2023/03/11 00:09:19;;;;;;;4.57;0.40;;;0.80;85.10;;;;;;5091004;28;20473;-77
2023/03/11 00:11:46;;;;;;;4.33;0.50;;;0.80;85.30;;;;;;5087627;28;20072;-77
2023/03/11 00:14:13;;;;;;;4.80;0.43;;;0.80;85.20;;;;;;5098855;28;20044;-76
2023/03/11 00:16:42;;;;;;;1.35;0.17;;;0.80;85.30;;;;;;5087831;28;20046;-76
2023/03/11 00:19:10;;;;;;;1.73;0.20;;;0.80;85.00;;;;;;5098177;28;20122;-77
2023/03/11 00:21:37;;;;;;;4.43;0.40;;;0.80;85.10;;;;;;5093465;28;20044;-76
2023/03/11 00:24:05;;;;;;;5.90;0.80;;;0.80;85.00;;;;;;5098925;28;20127;-76
2023/03/11 00:26:32;;;;;;;2.85;0.52;;;0.80;85.20;;;;;;5104725;28;20127;-77
2023/03/11 00:28:59;;;;;;;5.00;0.40;;;0.80;85.00;;;;;;5076146;28;20566;-76
2023/03/11 00:31:27;;;;;;;2.28;0.43;;;0.80;85.00;;;;;;5089679;28;20127;-76
2023/03/11 00:33:56;;;;;;;4.68;0.52;;;0.80;85.10;;;;;;5104175;27;20048;-77
2023/03/11 00:36:27;;;;;;;3.57;0.57;;;0.80;84.90;;;;;;5092451;28;20494;-76
2023/03/11 00:38:54;;;;;;;2.25;0.47;;;0.80;84.90;;;;;;5122962;27;20095;-77
2023/03/11 00:41:21;;;;;;;7.22;0.80;;;0.80;84.80;;;;;;5085129;28;20055;-76
2023/03/11 00:43:48;;;;;;;5.43;0.68;;;0.80;85.00;;;;;;5107967;28;20048;-76
2023/03/11 00:46:16;;;;;;;3.00;0.43;;;0.80;84.90;;;;;;5092782;28;20133;-76
2023/03/11 00:48:43;;;;;;;2.60;0.40;;;0.80;84.90;;;;;;5092805;28;20086;-77
2023/03/11 00:51:15;;;;;;;2.90;0.40;;;0.80;84.80;;;;;;5103818;28;20059;-76
2023/03/11 00:53:43;;;;;;;3.05;0.52;;;0.70;84.80;;;;;;5087898;28;20695;-77
2023/03/11 00:56:12;;;;;;;4.15;0.88;;;0.80;84.70;;;;;;5090425;28;20067;-76
2023/03/11 00:58:42;;;;;;;4.75;0.82;;;0.70;84.80;;;;;;5119999;27;20570;-77
2023/03/11 01:01:11;;;;;;;3.47;0.60;;;0.60;84.90;;;;;;5083764;28;20131;-77
2023/03/11 01:03:39;;;;;;;3.42;0.65;;;0.60;84.90;;;;;;5091161;28;20056;-77
2023/03/11 01:06:07;;;;;;;6.35;0.70;;;0.60;84.80;;;;;;5105707;28;20063;-77
2023/03/11 01:08:36;;;;;;;6.60;0.60;;;0.70;84.70;;;;;;5091810;28;20490;-76
2023/03/11 01:11:04;;;;;;;4.88;0.40;;;0.60;84.60;;;;;;5106979;28;20131;-76
2023/03/11 01:13:33;;;;;;;4.20;0.50;;;0.60;84.70;;;;;;5090351;28;20048;-76
2023/03/11 01:16:00;;;;;;;1.67;0.40;;;0.60;84.70;;;;;;5107707;28;20125;-77
2023/03/11 01:18:28;;;;;;;2.38;0.25;;;0.60;84.30;;;;;;5102887;28;20183;-77
2023/03/11 01:20:55;;;;;;;3.75;0.57;;;0.60;84.10;;;;;;5101503;28;20593;-76
2023/03/11 01:23:22;;;;;;;3.38;0.20;;;0.60;84.00;;;;;;5109502;28;20052;-77
2023/03/11 01:25:51;;;;;;;3.60;0.33;;;0.60;84.00;;;;;;5103474;28;20147;-77
2023/03/11 01:28:18;;;;;;;5.95;0.38;;;0.60;83.20;;;;;;5103461;28;20048;-77
2023/03/11 01:30:45;;;;;;;4.40;0.45;;;0.60;83.10;;;;;;5101146;28;20053;-76
2023/03/11 01:33:16;;;;;;;2.55;0.40;;;0.70;83.00;;;;;;5096825;28;20052;-76
2023/03/11 01:35:44;;;;;;;2.58;0.20;;;0.70;82.80;;;;;;5107768;28;20052;-77
2023/03/11 01:38:12;;;;;;;2.03;0.30;;;0.70;82.20;;;;;;5088277;28;20462;-77
2023/03/11 01:40:42;;;;;;;0.93;0.10;;;0.70;82.10;;;;;;5088246;28;20128;-77
2023/03/11 01:43:39;;;;;;;2.28;0.40;;;0.60;81.30;;;;;;5090125;28;20861;-77
2023/03/11 01:46:14;;;;;;;3.78;0.35;;;0.60;81.40;;;;;;5101680;28;20047;-76
2023/03/11 01:48:46;;;;;;;4.63;0.50;;;0.60;81.10;;;;;;5082271;28;20056;-77
2023/03/11 01:51:13;;;;;;;2.03;0.30;;;0.70;81.40;;;;;;5107582;27;20045;-77
2023/03/11 01:53:41;;;;;;;4.93;0.57;;;0.70;80.90;;;;;;5105765;28;20054;-76
2023/03/11 01:56:08;;;;;;;3.03;0.52;;;0.70;80.90;;;;;;5108280;28;20158;-77
2023/03/11 01:58:43;;;;;;;4.28;0.55;;;0.70;81.00;;;;;;5084481;28;20060;-76
2023/03/11 02:01:11;;;;;;;3.35;0.73;;;0.70;81.10;;;;;;5098545;27;20128;-77
2023/03/11 02:03:41;;;;;;;1.97;0.30;;;0.70;80.70;;;;;;5108408;28;20059;-77
2023/03/11 02:06:11;;;;;;;2.13;0.25;;;0.70;80.30;;;;;;5087183;28;20044;-76
2023/03/11 02:08:39;;;;;;;4.15;0.30;;;0.70;80.40;;;;;;5105058;28;20052;-76
2023/03/11 02:11:12;;;;;;;4.65;0.85;;;0.70;79.50;;;;;;5095054;28;20044;-77
2023/03/11 02:13:43;;;;;;;2.33;0.17;;;0.70;80.00;;;;;;5090985;28;20048;-77
2023/03/11 02:16:12;;;;;;;2.97;0.20;;;0.70;79.30;;;;;;5108073;28;20129;-77
2023/03/11 02:18:40;;;;;;;2.22;0.20;;;0.70;79.30;;;;;;5088985;28;20129;-77
2023/03/11 02:21:19;;;;;;;2.30;0.28;;;0.70;79.30;;;;;;5087601;28;20052;-77
2023/03/11 02:23:53;;;;;;;2.80;0.30;;;0.70;79.20;;;;;;5108792;28;20052;-77
2023/03/11 02:26:25;;;;;;;2.58;0.15;;;0.70;78.90;;;;;;5091965;28;20755;-77
2023/03/11 02:28:56;;;;;;;2.60;0.53;;;0.70;79.10;;;;;;5101488;28;20045;-77
2023/03/11 02:31:25;;;;;;;3.22;0.32;;;0.70;79.20;;;;;;5107816;28;20060;-77
2023/03/11 02:33:56;;;;;;;3.20;0.32;;;0.70;78.60;;;;;;5099757;28;20040;-77
2023/03/11 02:36:35;;;;;;;2.35;0.10;;;0.70;78.70;;;;;;5089419;28;20048;-76
2023/03/11 02:39:04;;;;;;;3.65;0.40;;;0.70;78.60;;;;;;5088841;28;20135;-77
2023/03/11 02:41:35;;;;;;;3.80;0.30;;;0.60;78.10;;;;;;5108725;27;20076;-77
2023/03/11 02:44:06;;;;;;;1.63;0.17;;;0.60;78.50;;;;;;5077051;28;20055;-77
2023/03/11 02:46:34;;;;;;;2.92;0.30;;;0.60;78.70;;;;;;5088534;28;20048;-77
2023/03/11 02:49:02;;;;;;;5.38;0.20;;;0.60;78.80;;;;;;5101662;28;20133;-77
2023/03/11 02:51:29;;;;;;;3.05;0.22;;;0.60;78.50;;;;;;5102024;28;20083;-76
2023/03/11 02:53:59;;;;;;;2.87;0.60;;;0.60;78.60;;;;;;5101469;28;20047;-77
2023/03/11 02:56:28;;;;;;;4.15;0.35;;;0.60;78.40;;;;;;5078228;28;20048;-76
2023/03/11 02:58:55;;;;;;;2.95;0.30;;;0.60;78.10;;;;;;5085079;28;20059;-76
2023/03/11 03:01:24;;;;;;;3.22;0.30;;;0.60;78.30;;;;;;5088292;28;20083;-77
2023/03/11 03:03:51;;;;;;;3.40;0.20;;;0.60;78.10;;;;;;5105773;28;20048;-77
2023/03/11 03:06:19;;;;;;;4.73;0.97;;;0.60;78.20;;;;;;5082917;28;20067;-76
2023/03/11 03:08:46;;;;;;;4.65;0.32;;;0.60;78.30;;;;;;5106740;28;20070;-76
2023/03/11 03:11:13;;;;;;;3.00;0.30;;;0.60;78.20;;;;;;5082580;28;20048;-76
2023/03/11 03:13:40;;;;;;;2.10;0.20;;;0.50;78.10;;;;;;5100845;28;20059;-76
2023/03/11 03:16:08;;;;;;;3.97;0.40;;;0.50;78.00;;;;;;5101736;28;20052;-76
2023/03/11 03:18:36;;;;;;;2.40;0.23;;;0.50;77.90;;;;;;5105264;28;20131;-76
2023/03/11 03:21:04;;;;;;;3.03;0.40;;;0.40;77.80;;;;;;5083796;28;20037;-76
2023/03/11 03:23:34;;;;;;;4.30;0.40;;;0.40;77.80;;;;;;5079587;28;20044;-76
2023/03/11 03:26:01;;;;;;;1.73;0.20;;;0.40;77.80;;;;;;5122707;27;20135;-76
2023/03/11 03:28:28;;;;;;;2.50;0.20;;;0.30;77.90;;;;;;5119863;27;20044;-76
2023/03/11 03:30:56;;;;;;;2.67;0.40;;;0.30;77.90;;;;;;5080584;28;20127;-76
2023/03/11 03:33:23;;;;;;;2.20;0.30;;;0.30;78.10;;;;;;5090211;28;20040;-76
2023/03/11 03:35:52;;;;;;;1.10;0.20;;;0.30;78.10;;;;;;5091124;28;20044;-76
2023/03/11 03:38:22;;;;;;;2.10;0.40;;;0.20;78.00;;;;;;5107256;27;20063;-76
2023/03/11 03:40:52;;;;;;;2.13;0.17;;;0.20;77.90;;;;;;5103676;28;20055;-77
2023/03/11 03:43:21;;;;;;;3.87;0.50;;;0.10;77.90;;;;;;5084350;28;20044;-76
2023/03/11 03:45:56;;;;;;;4.63;0.45;;;0.10;78.00;;;;;;5102945;27;20055;-78
2023/03/11 03:48:25;;;;;;;2.00;0.30;;;0.00;78.20;;;;;;5090818;28;20044;-76
2023/03/11 03:50:53;;;;;;;5.57;0.43;;;0.00;78.20;;;;;;5107552;28;20156;-76
2023/03/11 03:53:21;;;;;;;2.85;0.22;;;0.00;78.30;;;;;;5080224;28;20091;-76
2023/03/11 03:55:49;;;;;;;3.40;0.30;;;0.00;78.30;;;;;;5082424;28;20114;-76
2023/03/11 03:58:17;;;;;;;3.13;0.25;;;0.00;78.30;;;;;;5090802;28;20052;-76
2023/03/11 04:00:45;;;;;;;3.28;0.50;;;0.00;78.20;;;;;;5087298;28;20048;-76
2023/03/11 04:03:12;;;;;;;1.17;0.20;;;0.00;78.10;;;;;;5071731;27;21812;-76
2023/03/11 04:05:49;;;;;;;3.28;0.40;;;-0.10;78.20;;;;;;5087644;28;20059;-76
2023/03/11 04:08:17;;;;;;;3.60;0.30;;;-0.10;78.20;;;;;;5108281;27;20070;-76
2023/03/11 04:10:45;;;;;;;2.60;0.40;;;-0.10;78.30;;;;;;5092695;28;20806;-77
2023/03/11 04:13:12;;;;;;;3.10;0.40;;;-0.20;78.40;;;;;;5099963;28;20557;-76
2023/03/11 04:15:40;;;;;;;3.20;0.57;;;-0.20;78.50;;;;;;5085952;28;20226;-76
2023/03/11 04:18:07;;;;;;;2.45;0.50;;;-0.20;78.60;;;;;;5091143;28;20057;-76
2023/03/11 04:20:35;;;;;;;2.80;0.23;;;-0.30;78.60;;;;;;5110229;28;20102;-76
2023/03/11 04:23:02;;;;;;;1.58;0.25;;;-0.30;78.60;;;;;;5105461;28;20056;-76
2023/03/11 04:25:31;;;;;;;1.88;0.20;;;-0.30;78.70;;;;;;5083672;28;20047;-76
2023/03/11 04:27:58;;;;;;;3.58;0.30;;;-0.40;79.00;;;;;;5086873;28;20129;-76
2023/03/11 04:30:26;;;;;;;3.22;0.45;;;-0.40;79.00;;;;;;5102615;28;20869;-76
2023/03/11 04:32:56;;;;;;;3.47;0.30;;;-0.40;79.20;;;;;;5087106;28;20052;-77
2023/03/11 04:35:24;;;;;;;1.98;0.20;;;-0.50;79.20;;;;;;5088025;28;20899;-76
2023/03/11 04:37:51;;;;;;;3.65;0.30;;;-0.50;79.40;;;;;;5086937;28;20060;-76
2023/03/11 04:40:19;;;;;;;3.50;0.28;;;-0.50;79.40;;;;;;5105097;27;20617;-76
2023/03/11 04:42:48;;;;;;;2.45;0.30;;;-0.50;79.40;;;;;;5106440;28;20056;-76
2023/03/11 04:45:17;;;;;;;3.43;0.20;;;-0.60;79.50;;;;;;5092255;28;20378;-76
2023/03/11 04:47:48;;;;;;;2.75;0.30;;;-0.60;79.60;;;;;;5088535;28;20072;-76
2023/03/11 04:50:16;;;;;;;2.80;0.30;;;-0.60;79.50;;;;;;5091291;28;20040;-76
2023/03/11 04:52:44;;;;;;;3.88;0.20;;;-0.70;79.60;;;;;;5109389;28;20048;-76
2023/03/11 04:55:13;;;;;;;2.88;0.32;;;-0.70;79.70;;;;;;5110988;28;20052;-76
2023/03/11 04:57:42;;;;;;;3.70;0.43;;;-0.70;79.70;;;;;;5109057;27;20048;-76
2023/03/11 05:00:15;;;;;;;2.97;0.50;;;-0.70;79.80;;;;;;5092239;28;20044;-76
2023/03/11 05:02:45;;;;;;;3.30;0.20;;;-0.70;79.80;;;;;;5087460;28;20051;-76
2023/03/11 05:05:13;;;;;;;2.03;0.20;;;-0.70;79.90;;;;;;5101833;27;20056;-76
2023/03/11 05:07:41;;;;;;;2.58;0.30;;;-0.70;80.00;;;;;;5109724;28;20130;-76
2023/03/11 05:10:10;;;;;;;2.07;0.30;;;-0.80;80.00;;;;;;5102270;28;20048;-76
2023/03/11 05:12:38;;;;;;;3.67;0.52;;;-0.80;80.10;;;;;;5089693;28;20121;-76
2023/03/11 05:15:07;;;;;;;3.55;0.40;;;-0.80;80.10;;;;;;5091476;28;20055;-76
2023/03/11 05:17:36;;;;;;;2.13;0.30;;;-0.80;80.10;;;;;;5110006;28;20175;-76
2023/03/11 05:20:05;;;;;;;5.57;0.38;;;-0.90;80.10;;;;;;5085966;28;20052;-76
2023/03/11 05:22:33;;;;;;;4.83;0.43;;;-0.90;80.10;;;;;;5111026;27;20169;-76
2023/03/11 05:25:00;;;;;;;3.47;0.55;;;-0.90;80.10;;;;;;5088379;28;20051;-76
2023/03/11 05:27:27;;;;;;;3.95;0.40;;;-0.90;80.10;;;;;;5088639;28;20562;-76
2023/03/11 05:29:56;;;;;;;2.10;0.30;;;-0.90;80.10;;;;;;5089078;28;20433;-77
2023/03/11 05:32:25;;;;;;;2.92;0.40;;;-0.90;80.00;;;;;;5088266;28;21035;-76
2023/03/11 05:34:55;;;;;;;1.87;0.20;;;-0.90;80.10;;;;;;5107060;27;20075;-76
2023/03/11 05:37:22;;;;;;;2.78;0.20;;;-0.90;80.00;;;;;;5088280;28;21017;-76
2023/03/11 05:39:52;;;;;;;3.47;0.30;;;-0.90;80.00;;;;;;5089228;28;20048;-76
2023/03/11 05:42:20;;;;;;;2.40;0.30;;;-0.90;80.10;;;;;;5090667;28;20047;-76
2023/03/11 05:44:48;;;;;;;3.47;0.30;;;-1.00;80.00;;;;;;5090812;28;20044;-76
2023/03/11 05:47:16;;;;;;;2.50;0.30;;;-1.00;80.00;;;;;;5091428;27;20097;-77
2023/03/11 05:49:47;;;;;;;3.80;0.57;;;-1.00;80.00;;;;;;5089444;28;20045;-76
2023/03/11 05:52:18;;;;;;;4.63;0.30;;;-1.00;80.00;;;;;;5091019;28;20043;-76
2023/03/11 05:54:49;;;;;;;3.78;0.50;;;-1.00;80.00;;;;;;5090956;28;20047;-76
2023/03/11 05:57:17;;;;;;;2.92;0.38;;;-1.10;80.00;;;;;;5087627;28;20040;-76
2023/03/11 05:59:45;;;;;;;2.53;0.47;;;-1.00;80.00;;;;;;5104475;28;20055;-76
2023/03/11 06:02:12;;;;;;;2.72;0.57;;;-1.10;80.00;;;;;;5088899;28;20527;-76
2023/03/11 06:04:40;;;;;;;4.35;0.98;;;-1.10;80.00;;;;;;5088661;28;20048;-76
2023/03/11 06:07:11;;;;;;;5.20;0.90;;;-1.10;80.00;;;;;;5087052;28;20585;-76
2023/03/11 06:09:40;;;;;;;3.15;0.57;;;-1.10;80.00;;;;;;5088819;28;20051;-76
2023/03/11 06:12:11;;;;;;;3.73;0.57;;;-1.10;80.10;;;;;;5092240;28;20052;-75
2023/03/11 06:14:56;;;;;;;2.55;0.32;;;-1.20;80.20;;;;;;5087460;28;20052;-77
2023/03/11 06:17:23;;;;;;;6.65;0.70;;;-1.10;80.20;;;;;;5089103;28;20044;-76
2023/03/11 06:19:51;;;;;;;3.13;0.32;;;-1.10;80.30;;;;;;5086733;28;20536;-76
2023/03/11 06:22:18;;;;;;;3.30;0.45;;;-1.10;80.30;;;;;;5087766;27;20137;-76
2023/03/11 06:24:47;;;;;;;3.07;0.40;;;-1.10;80.20;;;;;;5089279;28;20044;-74
2023/03/11 06:27:14;;;;;;;4.75;0.52;;;-1.10;80.20;;;;;;5084858;28;20056;-76
2023/03/11 06:29:42;;;;;;;3.33;0.40;;;-1.20;80.30;;;;;;5100489;28;20507;-76
2023/03/11 06:32:10;;;;;;;4.15;0.47;;;-1.10;80.30;;;;;;5084088;28;20052;-77
2023/03/11 06:34:37;;;;;;;7.40;0.52;;;-1.10;80.40;;;;;;5096360;28;20080;-75
2023/03/11 06:37:04;;;;;;;2.73;0.50;;;-1.10;80.30;;;;;;5071362;28;20125;-75
2023/03/11 06:39:32;;;;;;;3.20;0.40;;;-1.10;80.30;;;;;;5102821;28;20049;-75
2023/03/11 06:42:00;;;;;;;2.95;0.68;;;-1.10;80.30;;;;;;5107788;28;20884;-71
2023/03/11 06:44:29;;;;;;;2.97;0.30;;;-1.10;80.40;;;;;;5091416;28;20182;-77
2023/03/11 06:46:56;;;;;;;3.33;0.50;;;-1.10;80.40;;;;;;5088518;28;20553;-74
2023/03/11 06:49:23;;;;;;;2.20;0.40;;;-1.10;80.30;;;;;;5101092;27;20098;-77
2023/03/11 06:51:50;;;;;;;2.10;0.40;;;-1.10;80.40;;;;;;5097289;28;20055;-72
2023/03/11 06:54:18;;;;;;;4.68;0.80;;;-1.10;80.40;;;;;;5090216;28;20054;-77
2023/03/11 06:56:45;;;;;;;3.38;0.38;;;-1.10;80.50;;;;;;5106770;28;20063;-76
2023/03/11 06:59:16;;;;;;;0.60;0.10;;;-1.10;80.70;;;;;;5086691;28;20049;-72
2023/03/11 07:01:45;;;;;;;3.33;0.37;;;-1.10;80.70;;;;;;5089761;28;20127;-75
2023/03/11 07:04:12;;;;;;;1.73;0.20;;;-1.00;80.70;;;;;;5096646;28;20056;-73
2023/03/11 07:06:42;;;;;;;2.60;0.40;;;-1.00;80.70;;;;;;5084596;28;20044;-73
2023/03/11 07:09:17;;;;;;;1.08;0.10;;;-1.00;80.70;;;;;;5079552;28;20052;-72
2023/03/11 07:11:46;;;;;;;4.55;0.45;;;-1.00;80.80;;;;;;5080215;28;20175;-72
2023/03/11 07:14:19;;;;;;;3.07;0.50;;;-1.00;80.80;;;;;;5080338;28;20063;-75
2023/03/11 07:16:55;;;;;;;1.92;0.30;;;-1.00;80.80;;;;;;5103054;28;20055;-76
2023/03/11 07:19:28;;;;;;;3.70;0.52;;;-1.00;80.90;;;;;;5085915;28;20044;-76
2023/03/11 07:21:55;;;;;;;2.03;0.30;;;-0.90;80.90;;;;;;5108169;28;20109;-76
2023/03/11 07:24:28;;;;;;;4.82;0.30;;;-0.90;80.90;;;;;;5109841;28;20163;-77
2023/03/11 07:26:55;;;;;;;2.90;0.67;;;-0.90;81.00;;;;;;5104894;27;21022;-77
2023/03/11 07:29:24;;;;;;;2.50;0.30;;;-0.90;80.90;;;;;;5104347;28;20127;-78
2023/03/11 07:31:51;;;;;;;5.68;1.33;;;-0.90;81.00;;;;;;5107797;28;20131;-78
2023/03/11 07:34:18;;;;;;;5.70;1.08;;;-0.80;81.10;;;;;;5085477;28;20152;-77
2023/03/11 07:36:45;;;;;;;3.58;0.73;;;-0.80;81.10;;;;;;5086742;28;20127;-79
2023/03/11 07:39:14;;;;;;;4.73;0.80;;;-0.70;81.10;;;;;;5104100;28;20086;-78
2023/03/11 07:41:42;;;;;;;2.70;0.60;;;-0.70;81.00;;;;;;5080328;28;20052;-79
2023/03/11 07:44:12;;;;;;;2.97;0.60;;;-0.70;81.00;;;;;;5102078;28;20040;-81
2023/03/11 07:46:41;;;;;;;3.33;0.30;;;-0.70;81.00;;;;;;5101671;28;20067;-84
2023/03/11 07:49:08;;;;;;;7.20;0.50;;;-0.60;81.00;;;;;;5098083;28;20084;-84
2023/03/11 07:51:37;;;;;;;1.20;0.20;;;-0.60;80.90;;;;;;5109658;27;20440;-80
2023/03/11 07:54:05;;;;;;;2.78;0.45;;;-0.60;81.00;;;;;;5084872;28;20258;-78
2023/03/11 07:56:35;;;;;;;3.40;0.50;;;-0.60;80.90;;;;;;5104860;28;20147;-79
2023/03/11 07:59:04;;;;;;;2.40;0.55;;;-0.50;81.00;;;;;;5104625;28;20048;-82
2023/03/11 08:01:35;;;;;;;2.00;0.35;;;-0.50;80.90;;;;;;5104910;28;20155;-76
2023/03/11 08:04:04;;;;;;;3.67;0.60;;;-0.40;81.00;;;;;;5102872;28;21084;-80
2023/03/11 08:06:33;;;;;;;4.28;0.60;;;-0.40;81.00;;;;;;5105718;28;20055;-77
2023/03/11 08:09:02;;;;;;;4.70;0.63;;;-0.30;81.00;;;;;;5103209;28;20055;-78
2023/03/11 08:11:30;;;;;;;3.03;0.70;;;-0.30;81.10;;;;;;5084272;28;21098;-77
2023/03/11 08:13:59;;;;;;;4.60;0.60;;;-0.20;81.20;;;;;;5107250;28;20671;-77
2023/03/11 08:16:26;;;;;;;4.23;0.73;;;-0.20;81.20;;;;;;5105158;28;20159;-78
2023/03/11 08:18:55;;;;;;;1.33;0.30;;;-0.10;81.20;;;;;;5103075;28;20043;-79
2023/03/11 08:21:25;;;;;;;3.58;0.40;;;-0.10;81.20;;;;;;5104428;28;20213;-77
2023/03/11 08:23:56;;;;;;;2.90;0.50;;;-0.10;81.10;;;;;;5102748;28;20193;-78
2023/03/11 08:26:25;;;;;;;3.00;0.47;;;0.00;81.00;;;;;;5101403;28;20048;-78
2023/03/11 08:28:52;;;;;;;3.23;0.40;;;0.00;80.90;;;;;;5102873;28;20050;-81
2023/03/11 08:31:22;;;;;;;2.78;0.40;;;0.00;81.00;;;;;;5105000;28;20047;-80
2023/03/11 08:33:51;;;;;;;4.10;0.60;;;0.10;80.80;;;;;;5101128;28;20163;-77
2023/03/11 08:36:19;;;;;;;3.00;0.40;;;0.20;80.80;;;;;;5102458;28;20056;-78
2023/03/11 08:38:48;;;;;;;3.72;0.40;;;0.20;80.50;;;;;;5099455;28;20064;-78
2023/03/11 08:41:16;;;;;;;4.80;0.70;;;0.30;80.30;;;;;;5101887;28;20056;-79
2023/03/11 08:43:43;;;;;;;1.90;0.35;;;0.40;80.10;;;;;;5105387;28;20107;-78
2023/03/11 08:46:15;;;;;;;4.90;0.70;;;0.40;80.20;;;;;;5101641;28;20138;-78
2023/03/11 08:48:42;;;;;;;4.15;0.40;;;0.50;80.10;;;;;;5100640;28;20960;-77
2023/03/11 08:51:10;;;;;;;3.70;0.47;;;0.60;80.20;;;;;;5102534;28;20076;-79
2023/03/11 08:53:37;;;;;;;2.90;0.30;;;0.60;80.20;;;;;;5107462;28;20054;-79
2023/03/11 08:56:07;;;;;;;3.50;0.80;;;0.60;80.20;;;;;;5088727;28;20894;-79
2023/03/11 08:58:34;;;;;;;4.57;0.73;;;0.70;80.10;;;;;;5106493;28;20126;-78
2023/03/11 09:01:01;;;;;;;3.55;0.57;;;0.80;80.00;;;;;;5089806;28;20048;-78
2023/03/11 09:03:31;;;;;;;5.28;0.93;;;0.80;80.00;;;;;;5106396;27;20076;-79
2023/03/11 09:06:00;;;;;;;1.60;0.20;;;0.90;80.00;;;;;;5107619;28;20056;-79
2023/03/11 09:08:27;;;;;;;2.47;0.28;;;1.00;79.80;;;;;;5109201;28;20044;-79
2023/03/11 09:10:55;;;;;;;4.40;0.70;;;1.00;79.80;;;;;;5119905;27;20052;-80
2023/03/11 09:13:23;;;;;;;3.58;0.70;;;1.00;79.70;;;;;;5108728;28;20048;-78
2023/03/11 09:15:51;;;;;;;3.40;0.35;;;1.10;79.60;;;;;;5101776;28;20053;-80
2023/03/11 09:18:18;;;;;;;1.37;0.20;;;1.20;79.20;;;;;;5105866;28;20163;-79
2023/03/11 09:20:45;;;;;;;1.75;0.28;;;1.20;79.00;;;;;;5088160;28;20082;-78
2023/03/11 09:23:14;;;;;;;5.43;0.68;;;1.30;78.50;;;;;;5107318;28;20048;-78
2023/03/11 09:25:42;;;;;;;3.85;0.70;;;1.40;78.70;;;;;;5107632;28;20087;-79
2023/03/11 09:28:09;;;;;;;4.88;0.60;;;1.40;78.90;;;;;;5097123;28;20051;-78
2023/03/11 09:30:37;;;;;;;5.27;0.90;;;1.50;78.90;;;;;;5104235;28;20075;-79
2023/03/11 09:33:04;;;;;;;4.88;0.73;;;1.50;79.00;;;;;;5108038;28;20044;-79
2023/03/11 09:35:32;;;;;;;4.82;0.80;;;1.60;79.00;;;;;;5109969;28;20071;-78
2023/03/11 09:37:59;;;;;;;2.15;0.47;;;1.60;78.80;;;;;;5107584;28;20052;-80
2023/03/11 09:40:45;;;;;;;3.72;0.65;;;1.70;78.70;;;;;;5090905;28;20151;-78
2023/03/11 09:43:24;;;;;;;1.77;0.30;;;1.80;78.40;;;;;;5106024;28;20083;-79
2023/03/11 09:46:01;;;;;;;5.03;0.68;;;1.80;77.20;;;;;;5119887;27;20139;-79
2023/03/11 09:48:33;;;;;;;1.02;0.20;;;1.90;77.10;;;;;;5092051;28;20059;-78
2023/03/11 09:51:07;;;;;;;2.75;0.22;;;1.90;77.10;;;;;;5108826;28;20113;-79
2023/03/11 09:53:40;;;;;;;3.10;0.50;;;2.00;77.20;;;;;;5106501;28;20060;-79
2023/03/11 09:56:09;;;;;;;4.77;0.57;;;2.00;77.10;;;;;;5093587;28;20142;-79
2023/03/11 09:58:40;;;;;;;3.00;0.47;;;2.10;76.60;;;;;;5107019;28;20056;-79
2023/03/11 10:01:16;;;;;;;4.80;0.50;;;2.20;76.20;;;;;;5100916;28;20048;-78
2023/03/11 10:03:45;;;;;;;3.63;0.50;;;2.20;76.60;;;;;;5114965;27;20563;-79
2023/03/11 10:06:15;;;;;;;4.90;0.70;;;2.20;76.50;;;;;;5088830;28;20077;-78
2023/03/11 10:08:46;;;;;;;5.00;0.63;;;2.30;76.60;;;;;;5097256;28;20048;-79
2023/03/11 10:11:43;;;;;;;4.97;0.70;;;2.40;76.60;;;;;;5105248;27;20051;-81
2023/03/11 10:14:21;;;;;;;6.85;0.98;;;2.40;77.00;;;;;;5106191;28;20044;-81
2023/03/11 10:16:57;;;;;;;3.25;0.43;;;2.50;77.10;;;;;;5100204;28;20056;-80
2023/03/11 10:19:33;;;;;;;2.20;0.52;;;2.50;77.20;;;;;;5097147;28;20060;-80
2023/03/11 10:22:07;;;;;;;3.27;0.67;;;2.70;77.30;;;;;;5105311;28;20139;-79
2023/03/11 10:24:44;;;;;;;3.25;0.70;;;2.70;77.20;;;;;;5106072;28;20048;-77
2023/03/11 10:27:17;;;;;;;3.75;0.35;;;2.80;77.30;;;;;;5107545;28;20048;-79
2023/03/11 10:29:52;;;;;;;3.03;0.60;;;2.90;77.20;;;;;;5107955;27;20041;-79
2023/03/11 10:32:26;;;;;;;7.43;0.70;;;3.00;77.20;;;;;;5110283;28;20571;-79
2023/03/11 10:35:00;;;;;;;4.13;0.40;;;3.00;77.20;;;;;;5101852;28;20106;-79
2023/03/11 10:37:31;;;;;;;6.35;1.00;;;3.10;76.70;;;;;;5102528;28;20048;-79
2023/03/11 10:40:09;;;;;;;2.05;0.17;;;3.10;76.80;;;;;;5106141;28;20071;-79
2023/03/11 10:42:37;;;;;;;5.95;0.80;;;3.30;76.50;;;;;;5099984;28;20048;-81
2023/03/11 10:45:10;;;;;;;4.70;0.65;;;3.30;76.40;;;;;;5087704;28;20048;-81
2023/03/11 10:47:39;;;;;;;4.43;0.60;;;3.40;76.40;;;;;;5106015;27;20158;-82
2023/03/11 10:50:07;;;;;;;3.88;0.70;;;3.50;76.20;;;;;;5100073;28;20048;-82
2023/03/11 10:52:44;;;;;;;3.97;0.50;;;3.50;75.90;;;;;;5102824;28;20060;-82
2023/03/11 10:55:18;;;;;;;2.60;0.50;;;3.60;75.70;;;;;;5103786;28;20884;-83
2023/03/11 10:57:46;;;;;;;6.78;0.70;;;3.70;75.60;;;;;;5116819;27;20051;-84
2023/03/11 11:00:29;;;;;;;3.63;0.50;;;3.80;75.70;;;;;;5084911;28;20502;-85
2023/03/11 11:02:58;;;;;;;4.82;0.50;;;3.90;75.70;;;;;;5102769;28;20062;-85
2023/03/11 11:05:31;;;;;;;4.00;0.50;;;3.90;75.10;;;;;;5087872;28;20059;-85
2023/03/11 11:08:07;;;;;;;3.53;0.45;;;4.00;74.20;;;;;;5104950;28;20066;-84
2023/03/11 11:10:36;;;;;;;2.88;0.50;;;4.00;73.90;;;;;;5098085;28;20051;-83
2023/03/11 11:13:17;;;;;;;4.27;0.43;;;4.10;73.60;;;;;;5102765;28;20107;-81
2023/03/11 11:15:53;;;;;;;2.72;0.20;;;4.20;73.70;;;;;;5086236;28;20051;-82
2023/03/11 11:18:26;;;;;;;5.53;0.73;;;4.20;73.70;;;;;;5106408;27;20054;-85
2023/03/11 11:21:01;;;;;;;5.10;0.55;;;4.30;72.50;;;;;;5102872;28;20040;-84
2023/03/11 11:23:33;;;;;;;3.95;0.40;;;4.30;72.60;;;;;;5081821;28;20143;-81
2023/03/11 11:26:03;;;;;;;2.93;0.40;;;4.40;72.50;;;;;;5105680;28;20048;-81
2023/03/11 11:28:31;;;;;;;3.38;0.50;;;4.40;72.60;;;;;;5106847;28;20429;-82
2023/03/11 11:31:00;;;;;;;3.20;0.45;;;4.50;72.60;;;;;;5100732;28;20131;-83
2023/03/11 11:33:31;;;;;;;2.60;0.30;;;4.50;71.90;;;;;;5105995;27;20068;-83
2023/03/11 11:36:01;;;;;;;3.45;0.50;;;4.60;71.20;;;;;;5102200;28;20062;-88
2023/03/11 11:38:30;;;;;;;4.50;0.50;;;4.70;71.40;;;;;;5088784;28;20075;-87
2023/03/11 11:41:01;;;;;;;3.65;0.40;;;4.70;70.50;;;;;;5098284;28;20141;-85
2023/03/11 11:43:41;;;;;;;5.45;0.70;;;4.70;69.80;;;;;;5102454;28;20055;-88
2023/03/11 11:46:19;;;;;;;2.60;0.30;;;4.90;69.60;;;;;;5100491;28;20081;-87
2023/03/11 11:48:56;;;;;;;3.97;0.20;;;4.90;68.80;;;;;;5104224;28;20171;-84
2023/03/11 11:51:28;;;;;;;3.27;0.30;;;4.90;68.40;;;;;;5085918;28;20056;-81
2023/03/11 11:53:59;;;;;;;2.17;0.30;;;5.00;67.50;;;;;;5101270;28;20084;-81
2023/03/11 11:56:27;;;;;;;3.88;0.50;;;5.00;67.90;;;;;;5082310;28;20079;-84
2023/03/11 11:58:54;;;;;;;3.97;0.40;;;5.00;67.70;;;;;;5102051;28;20080;-87
2023/03/11 12:01:31;;;;;;;3.10;0.52;;;5.00;67.20;;;;;;5096055;28;20044;-89
2023/03/11 12:04:31;;;;;;;5.93;0.40;;;5.10;65.60;;;;;;5103135;28;20040;-82
2023/03/11 12:07:14;;;;;;;2.50;0.20;;;5.10;64.50;;;;;;5101648;28;20051;-83
2023/03/11 12:09:52;;;;;;;2.00;0.30;;;5.10;63.50;;;;;;5084426;28;20055;-79
2023/03/11 12:12:27;;;;;;;2.03;0.28;;;5.10;63.10;;;;;;5101489;28;20123;-78
2023/03/11 12:15:01;;;;;;;2.17;0.35;;;5.00;63.20;;;;;;5102302;28;20081;-81
2023/03/11 12:17:30;;;;;;;2.97;0.40;;;5.00;63.70;;;;;;5114268;27;20178;-78
2023/03/11 12:20:03;;;;;;;2.22;0.20;;;5.00;63.90;;;;;;5101806;27;20630;-84
2023/03/11 12:22:55;;;;;;;3.97;0.40;;;5.00;64.10;;;;;;5097194;28;20087;-85
2023/03/11 12:25:33;;;;;;;4.07;0.28;;;5.00;64.80;;;;;;5083973;28;20048;-84
2023/03/11 12:28:10;;;;;;;2.75;0.30;;;5.00;65.60;;;;;;5119435;27;20249;-84
2023/03/11 12:30:41;;;;;;;4.70;0.40;;;5.10;65.20;;;;;;5100424;28;20052;-76
2023/03/11 12:33:17;;;;;;;2.17;0.28;;;5.20;64.80;;;;;;5108741;28;20047;-84
2023/03/11 12:35:56;;;;;;;3.60;0.43;;;5.30;63.20;;;;;;5110790;28;20133;-80
2023/03/11 12:38:31;;;;;;;2.22;0.30;;;5.30;64.00;;;;;;5090436;28;20127;-76
2023/03/11 12:41:03;;;;;;;4.72;0.40;;;5.30;64.20;;;;;;5110900;28;20517;-75
2023/03/11 12:44:10;;;;;;;3.97;0.20;;;5.30;64.10;;;;;;5106835;28;20596;-75
2023/03/11 12:47:23;;;;;;;3.60;0.40;;;5.30;63.20;;;;;;5104053;28;20049;-75
2023/03/11 12:49:53;;;;;;;4.70;0.40;;;5.40;62.80;;;;;;5115522;27;20044;-75
2023/03/11 12:52:27;;;;;;;0.88;0.10;;;5.40;63.50;;;;;;5089967;28;20055;-75
2023/03/11 12:55:37;;;;;;;1.33;0.20;;;5.40;61.40;;;;;;5098308;27;20052;-75
2023/03/11 12:58:38;;;;;;;2.40;0.40;;;5.40;61.50;;;;;;5103660;28;20681;-75
2023/03/11 13:01:42;;;;;;;3.78;0.35;;;5.40;62.00;;;;;;5104109;28;20190;-75
2023/03/11 13:04:45;;;;;;;5.60;0.40;;;5.40;62.80;;;;;;5100532;28;20052;-75
2023/03/11 13:07:45;;;;;;;6.32;0.30;;;5.40;63.60;;;;;;5102150;28;20052;-76
2023/03/11 13:10:21;;;;;;;4.80;0.20;;;5.50;63.70;;;;;;5104703;28;20130;-75
2023/03/11 13:12:49;;;;;;;5.03;0.30;;;5.50;62.00;;;;;;5100398;27;20056;-76